sensor_id;sensor_type;location;lat;lon;timestamp;pressure;altitude;pressure_sealevel;temperature;humidity
19751;BME280;4663;49.120;9.730;2022-09-16T00:00:07;97478.25;;;9.88;100.00
19751;BME280;4663;49.120;9.730;2022-09-16T00:02:33;97486.28;;;10.04;100.00
19751;BME280;4663;49.120;9.730;2022-09-16T00:04:58;97485.00;;;9.99;100.00
19751;BME280;4663;49.120;9.730;2022-09-16T00:07:24;97485.63;;;10.01;100.00
19751;BME280;4663;49.120;9.730;2022-09-16T00:09:49;97475.69;;;10.02;100.00
19751;BME280;4663;49.120;9.730;2022-09-16T00:12:14;97470.09;;;10.04;100.00
19751;BME280;4663;49.120;9.730;2022-09-16T00:14:40;97470.44;;;9.94;100.00
19751;BME280;4663;49.120;9.730;2022-09-16T00:17:05;97475.38;;;9.90;100.00
19751;BME280;4663;49.120;9.730;2022-09-16T00:19:30;97466.66;;;9.88;100.00
19751;BME280;4663;49.120;9.730;2022-09-16T00:21:56;97471.63;;;9.91;100.00
19751;BME280;4663;49.120;9.730;2022-09-16T00:24:21;97469.63;;;10.00;100.00
19751;BME280;4663;49.120;9.730;2022-09-16T00:26:46;97470.03;;;9.97;100.00
19751;BME280;4663;49.120;9.730;2022-09-16T00:29:12;97469.97;;;9.90;100.00
19751;BME280;4663;49.120;9.730;2022-09-16T00:31:37;97472.03;;;9.88;100.00
19751;BME280;4663;49.120;9.730;2022-09-16T00:34:03;97481.59;;;9.91;100.00
19751;BME280;4663;49.120;9.730;2022-09-16T00:36:28;97472.47;;;9.92;100.00
19751;BME280;4663;49.120;9.730;2022-09-16T00:38:55;97473.38;;;9.99;100.00
19751;BME280;4663;49.120;9.730;2022-09-16T00:41:25;97470.44;;;9.94;100.00
19751;BME280;4663;49.120;9.730;2022-09-16T00:43:57;97476.25;;;9.97;100.00
19751;BME280;4663;49.120;9.730;2022-09-16T00:48:55;97484.16;;;9.99;100.00
19751;BME280;4663;49.120;9.730;2022-09-16T00:51:21;97484.53;;;9.96;100.00
19751;BME280;4663;49.120;9.730;2022-09-16T00:53:52;97488.66;;;9.92;100.00
19751;BME280;4663;49.120;9.730;2022-09-16T00:56:22;97486.97;;;10.12;100.00
19751;BME280;4663;49.120;9.730;2022-09-16T00:58:56;97495.13;;;9.97;100.00
19751;BME280;4663;49.120;9.730;2022-09-16T01:01:29;97493.66;;;9.95;100.00
19751;BME280;4663;49.120;9.730;2022-09-16T01:03:59;97489.97;;;10.03;100.00
19751;BME280;4663;49.120;9.730;2022-09-16T01:06:27;97491.19;;;10.00;100.00
19751;BME280;4663;49.120;9.730;2022-09-16T01:08:54;97483.69;;;9.95;100.00
19751;BME280;4663;49.120;9.730;2022-09-16T01:11:19;97485.44;;;10.03;100.00
19751;BME280;4663;49.120;9.730;2022-09-16T01:13:46;97496.22;;;10.03;100.00
19751;BME280;4663;49.120;9.730;2022-09-16T01:18:47;97489.94;;;9.96;100.00
19751;BME280;4663;49.120;9.730;2022-09-16T01:24:08;97492.38;;;9.91;100.00
19751;BME280;4663;49.120;9.730;2022-09-16T01:34:47;97488.31;;;10.01;100.00
19751;BME280;4663;49.120;9.730;2022-09-16T01:43:08;97495.66;;;9.86;100.00
19751;BME280;4663;49.120;9.730;2022-09-16T01:51:00;97484.28;;;10.12;100.00
19751;BME280;4663;49.120;9.730;2022-09-16T01:58:25;97485.00;;;10.28;100.00
19751;BME280;4663;49.120;9.730;2022-09-16T02:00:58;97482.75;;;10.32;100.00
19751;BME280;4663;49.120;9.730;2022-09-16T02:03:30;97487.63;;;10.15;100.00
19751;BME280;4663;49.120;9.730;2022-09-16T02:06:03;97485.81;;;10.22;100.00
19751;BME280;4663;49.120;9.730;2022-09-16T02:08:36;97482.84;;;10.17;100.00
19751;BME280;4663;49.120;9.730;2022-09-16T02:11:04;97483.00;;;10.08;100.00
19751;BME280;4663;49.120;9.730;2022-09-16T02:13:34;97485.16;;;10.20;100.00
19751;BME280;4663;49.120;9.730;2022-09-16T02:16:08;97485.34;;;10.18;100.00
19751;BME280;4663;49.120;9.730;2022-09-16T02:18:39;97482.22;;;10.15;100.00
19751;BME280;4663;49.120;9.730;2022-09-16T02:21:08;97483.78;;;10.02;100.00
19751;BME280;4663;49.120;9.730;2022-09-16T02:23:41;97490.28;;;10.08;100.00
19751;BME280;4663;49.120;9.730;2022-09-16T02:26:10;97486.94;;;10.06;100.00
19751;BME280;4663;49.120;9.730;2022-09-16T02:28:39;97489.84;;;10.11;100.00
19751;BME280;4663;49.120;9.730;2022-09-16T02:31:06;97484.94;;;10.15;100.00
19751;BME280;4663;49.120;9.730;2022-09-16T02:33:44;97481.38;;;10.14;100.00
19751;BME280;4663;49.120;9.730;2022-09-16T02:36:15;97474.94;;;10.15;100.00
19751;BME280;4663;49.120;9.730;2022-09-16T02:38:47;97474.94;;;10.15;100.00
19751;BME280;4663;49.120;9.730;2022-09-16T02:41:14;97481.69;;;10.26;100.00
19751;BME280;4663;49.120;9.730;2022-09-16T02:43:40;97487.63;;;10.15;100.00
19751;BME280;4663;49.120;9.730;2022-09-16T02:46:38;97481.13;;;10.37;100.00
19751;BME280;4663;49.120;9.730;2022-09-16T02:49:25;97481.34;;;10.07;100.00
19751;BME280;4663;49.120;9.730;2022-09-16T02:52:13;97468.97;;;10.20;100.00
19751;BME280;4663;49.120;9.730;2022-09-16T02:57:21;97474.75;;;10.17;100.00
19751;BME280;4663;49.120;9.730;2022-09-16T02:59:47;97464.88;;;10.31;100.00
19751;BME280;4663;49.120;9.730;2022-09-16T03:02:13;97459.28;;;10.32;100.00
19751;BME280;4663;49.120;9.730;2022-09-16T03:04:39;97473.94;;;10.16;100.00
19751;BME280;4663;49.120;9.730;2022-09-16T03:07:05;97467.69;;;10.16;100.00
19751;BME280;4663;49.120;9.730;2022-09-16T03:09:33;97463.31;;;10.08;100.00
19751;BME280;4663;49.120;9.730;2022-09-16T03:33:41;97463.59;;;10.20;100.00
19751;BME280;4663;49.120;9.730;2022-09-16T03:36:13;97455.44;;;10.13;100.00
19751;BME280;4663;49.120;9.730;2022-09-16T03:38:41;97456.72;;;10.17;100.00
19751;BME280;4663;49.120;9.730;2022-09-16T03:41:07;97451.91;;;10.12;100.00
19751;BME280;4663;49.120;9.730;2022-09-16T03:43:34;97465.91;;;10.01;100.00
19751;BME280;4663;49.120;9.730;2022-09-16T03:45:59;97456.72;;;9.95;100.00
19751;BME280;4663;49.120;9.730;2022-09-16T03:48:25;97463.25;;;9.79;100.00
19751;BME280;4663;49.120;9.730;2022-09-16T03:50:50;97461.50;;;9.71;100.00
19751;BME280;4663;49.120;9.730;2022-09-16T03:53:15;97454.50;;;9.77;100.00
19751;BME280;4663;49.120;9.730;2022-09-16T03:55:41;97452.84;;;9.76;100.00
19751;BME280;4663;49.120;9.730;2022-09-16T03:58:07;97453.25;;;9.73;100.00
19751;BME280;4663;49.120;9.730;2022-09-16T04:00:32;97458.25;;;9.76;100.00
19751;BME280;4663;49.120;9.730;2022-09-16T04:02:58;97456.59;;;9.75;100.00
19751;BME280;4663;49.120;9.730;2022-09-16T04:05:24;97456.91;;;9.65;100.00
19751;BME280;4663;49.120;9.730;2022-09-16T04:07:50;97468.16;;;9.47;100.00
19751;BME280;4663;49.120;9.730;2022-09-16T04:10:16;97466.69;;;9.44;100.00
19751;BME280;4663;49.120;9.730;2022-09-16T04:12:41;97468.22;;;9.54;100.00
19751;BME280;4663;49.120;9.730;2022-09-16T04:15:07;97463.41;;;9.49;100.00
19751;BME280;4663;49.120;9.730;2022-09-16T04:17:33;97464.28;;;9.56;100.00
19751;BME280;4663;49.120;9.730;2022-09-16T04:19:58;97458.91;;;9.56;100.00
19751;BME280;4663;49.120;9.730;2022-09-16T04:22:27;97463.72;;;9.61;100.00
19751;BME280;4663;49.120;9.730;2022-09-16T04:24:53;97459.69;;;9.50;100.00
19751;BME280;4663;49.120;9.730;2022-09-16T04:27:18;97451.78;;;9.70;100.00
19751;BME280;4663;49.120;9.730;2022-09-16T04:29:43;97455.50;;;9.69;100.00
19751;BME280;4663;49.120;9.730;2022-09-16T04:32:09;97454.03;;;9.67;100.00
19751;BME280;4663;49.120;9.730;2022-09-16T04:34:34;97456.22;;;9.78;100.00
19751;BME280;4663;49.120;9.730;2022-09-16T04:37:00;97457.88;;;9.79;100.00
19751;BME280;4663;49.120;9.730;2022-09-16T04:39:25;97458.09;;;9.84;100.00
19751;BME280;4663;49.120;9.730;2022-09-16T04:41:51;97465.06;;;9.72;100.00
19751;BME280;4663;49.120;9.730;2022-09-16T04:44:16;97461.94;;;9.68;100.00
19751;BME280;4663;49.120;9.730;2022-09-16T04:46:41;97460.00;;;9.62;100.00
19751;BME280;4663;49.120;9.730;2022-09-16T04:49:07;97453.19;;;9.66;100.00
19751;BME280;4663;49.120;9.730;2022-09-16T04:51:32;97451.19;;;9.53;100.00
19751;BME280;4663;49.120;9.730;2022-09-16T04:53:58;97452.63;;;9.49;100.00
19751;BME280;4663;49.120;9.730;2022-09-16T04:56:27;97452.19;;;9.45;100.00
19751;BME280;4663;49.120;9.730;2022-09-16T04:58:55;97451.34;;;9.45;100.00
19751;BME280;4663;49.120;9.730;2022-09-16T05:01:26;97463.88;;;9.53;100.00
19751;BME280;4663;49.120;9.730;2022-09-16T05:03:55;97463.16;;;9.44;100.00
19751;BME280;4663;49.120;9.730;2022-09-16T05:06:29;97467.88;;;9.42;100.00
19751;BME280;4663;49.120;9.730;2022-09-16T05:08:55;97475.00;;;9.49;100.00
19751;BME280;4663;49.120;9.730;2022-09-16T05:11:25;97475.06;;;9.56;100.00
19751;BME280;4663;49.120;9.730;2022-09-16T05:13:51;97481.25;;;9.50;100.00
19751;BME280;4663;49.120;9.730;2022-09-16T05:16:20;97471.22;;;9.44;100.00
19751;BME280;4663;49.120;9.730;2022-09-16T05:18:47;97469.56;;;9.65;100.00
19751;BME280;4663;49.120;9.730;2022-09-16T05:21:14;97475.59;;;9.67;100.00
19751;BME280;4663;49.120;9.730;2022-09-16T05:23:40;97473.03;;;9.58;100.00
19751;BME280;4663;49.120;9.730;2022-09-16T05:26:11;97476.22;;;9.69;100.00
19751;BME280;4663;49.120;9.730;2022-09-16T05:28:38;97480.13;;;9.66;100.00
19751;BME280;4663;49.120;9.730;2022-09-16T05:31:17;97474.25;;;9.56;100.00
19751;BME280;4663;49.120;9.730;2022-09-16T05:33:46;97477.13;;;9.54;100.00
19751;BME280;4663;49.120;9.730;2022-09-16T05:36:15;97483.81;;;9.58;100.00
19751;BME280;4663;49.120;9.730;2022-09-16T05:38:41;97477.00;;;9.62;100.00
19751;BME280;4663;49.120;9.730;2022-09-16T05:41:07;97478.84;;;9.62;100.00
19751;BME280;4663;49.120;9.730;2022-09-16T05:43:33;97472.94;;;9.52;100.00
19751;BME280;4663;49.120;9.730;2022-09-16T05:45:59;97469.63;;;9.49;100.00
19751;BME280;4663;49.120;9.730;2022-09-16T05:48:26;97474.97;;;9.43;100.00
19751;BME280;4663;49.120;9.730;2022-09-16T05:53:21;97478.28;;;9.45;100.00
19751;BME280;4663;49.120;9.730;2022-09-16T05:55:54;97488.41;;;9.65;100.00
19751;BME280;4663;49.120;9.730;2022-09-16T05:58:20;97480.38;;;9.71;100.00
19751;BME280;4663;49.120;9.730;2022-09-16T06:00:45;97483.41;;;9.61;100.00
19751;BME280;4663;49.120;9.730;2022-09-16T06:03:11;97479.38;;;9.51;100.00
19751;BME280;4663;49.120;9.730;2022-09-16T06:05:36;97481.13;;;9.58;100.00
19751;BME280;4663;49.120;9.730;2022-09-16T06:08:01;97486.69;;;9.57;100.00
19751;BME280;4663;49.120;9.730;2022-09-16T06:10:27;97482.53;;;9.54;100.00
19751;BME280;4663;49.120;9.730;2022-09-16T06:12:53;97474.88;;;9.58;100.00
19751;BME280;4663;49.120;9.730;2022-09-16T06:15:18;97471.88;;;9.46;100.00
19751;BME280;4663;49.120;9.730;2022-09-16T06:17:43;97484.56;;;9.30;100.00
19751;BME280;4663;49.120;9.730;2022-09-16T06:20:09;97481.25;;;9.50;100.00
19751;BME280;4663;49.120;9.730;2022-09-16T06:22:38;97485.72;;;9.43;100.00
19751;BME280;4663;49.120;9.730;2022-09-16T06:25:04;97487.00;;;9.47;100.00
19751;BME280;4663;49.120;9.730;2022-09-16T06:27:31;97480.22;;;9.51;100.00
19751;BME280;4663;49.120;9.730;2022-09-16T06:29:56;97481.94;;;9.59;100.00
19751;BME280;4663;49.120;9.730;2022-09-16T06:32:21;97480.78;;;9.68;99.67
19751;BME280;4663;49.120;9.730;2022-09-16T06:34:47;97488.09;;;9.74;99.61
19751;BME280;4663;49.120;9.730;2022-09-16T06:37:12;97481.59;;;9.69;99.05
19751;BME280;4663;49.120;9.730;2022-09-16T06:39:38;97489.69;;;9.69;99.95
19751;BME280;4663;49.120;9.730;2022-09-16T06:42:06;97484.97;;;9.71;99.24
19751;BME280;4663;49.120;9.730;2022-09-16T06:44:32;97483.53;;;9.53;98.82
19751;BME280;4663;49.120;9.730;2022-09-16T06:46:57;97487.00;;;9.47;98.69
19751;BME280;4663;49.120;9.730;2022-09-16T06:49:22;97484.69;;;9.44;99.00
19751;BME280;4663;49.120;9.730;2022-09-16T06:51:48;97480.31;;;9.21;98.54
19751;BME280;4663;49.120;9.730;2022-09-16T06:54:13;97477.78;;;9.34;99.67
19751;BME280;4663;49.120;9.730;2022-09-16T06:56:39;97463.84;;;9.09;99.17
19751;BME280;4663;49.120;9.730;2022-09-16T06:59:06;97478.28;;;9.23;98.69
19751;BME280;4663;49.120;9.730;2022-09-16T07:01:32;97481.28;;;9.35;99.57
19751;BME280;4663;49.120;9.730;2022-09-16T07:04:00;97482.44;;;9.47;100.00
19751;BME280;4663;49.120;9.730;2022-09-16T07:06:27;97487.91;;;9.76;99.53
19751;BME280;4663;49.120;9.730;2022-09-16T07:08:53;97489.31;;;9.72;97.21
19751;BME280;4663;49.120;9.730;2022-09-16T07:11:20;97481.63;;;9.47;97.86
19751;BME280;4663;49.120;9.730;2022-09-16T07:13:47;97479.97;;;9.46;97.41
19751;BME280;4663;49.120;9.730;2022-09-16T07:16:15;97482.31;;;9.34;98.85
19751;BME280;4663;49.120;9.730;2022-09-16T07:18:41;97493.16;;;9.41;99.98
19751;BME280;4663;49.120;9.730;2022-09-16T07:21:10;97478.22;;;9.38;98.52
19751;BME280;4663;49.120;9.730;2022-09-16T07:23:37;97490.47;;;9.41;99.23
19751;BME280;4663;49.120;9.730;2022-09-16T07:26:09;97487.00;;;9.47;99.66
19751;BME280;4663;49.120;9.730;2022-09-16T07:28:35;97491.06;;;9.36;100.00
19751;BME280;4663;49.120;9.730;2022-09-16T07:31:04;97482.72;;;9.53;100.00
19751;BME280;4663;49.120;9.730;2022-09-16T07:33:30;97491.13;;;9.43;100.00
19751;BME280;4663;49.120;9.730;2022-09-16T07:35:58;97497.84;;;9.54;100.00
19751;BME280;4663;49.120;9.730;2022-09-16T07:38:24;97497.78;;;9.69;100.00
19751;BME280;4663;49.120;9.730;2022-09-16T07:40:50;97492.19;;;9.70;99.08
19751;BME280;4663;49.120;9.730;2022-09-16T07:43:15;97491.75;;;9.45;99.80
19751;BME280;4663;49.120;9.730;2022-09-16T07:45:40;97490.09;;;9.66;99.21
19751;BME280;4663;49.120;9.730;2022-09-16T07:48:06;97495.84;;;9.84;98.88
19751;BME280;4663;49.120;9.730;2022-09-16T07:50:31;97494.13;;;9.77;99.08
19751;BME280;4663;49.120;9.730;2022-09-16T07:52:57;97497.13;;;9.88;99.03
19751;BME280;4663;49.120;9.730;2022-09-16T07:55:22;97487.94;;;10.05;98.47
19751;BME280;4663;49.120;9.730;2022-09-16T07:57:47;97488.00;;;10.11;98.62
19751;BME280;4663;49.120;9.730;2022-09-16T08:00:13;97486.81;;;10.21;99.35
19751;BME280;4663;49.120;9.730;2022-09-16T08:02:40;97491.00;;;10.23;96.08
19751;BME280;4663;49.120;9.730;2022-09-16T08:05:06;97489.09;;;10.17;96.62
19751;BME280;4663;49.120;9.730;2022-09-16T08:07:31;97487.78;;;10.06;96.16
19751;BME280;4663;49.120;9.730;2022-09-16T08:09:57;97494.94;;;9.99;97.67
19751;BME280;4663;49.120;9.730;2022-09-16T08:12:22;97486.19;;;9.97;97.34
19751;BME280;4663;49.120;9.730;2022-09-16T08:14:47;97500.88;;;10.09;98.24
19751;BME280;4663;49.120;9.730;2022-09-16T08:17:13;97505.03;;;9.90;97.71
19751;BME280;4663;49.120;9.730;2022-09-16T08:19:38;97509.84;;;9.95;97.34
19751;BME280;4663;49.120;9.730;2022-09-16T08:22:06;97511.53;;;10.03;98.06
19751;BME280;4663;49.120;9.730;2022-09-16T08:24:31;97509.44;;;9.98;98.39
19751;BME280;4663;49.120;9.730;2022-09-16T08:26:57;97504.63;;;9.93;97.62
19751;BME280;4663;49.120;9.730;2022-09-16T08:29:22;97505.84;;;10.12;97.47
19751;BME280;4663;49.120;9.730;2022-09-16T08:31:50;97513.31;;;10.10;97.46
19751;BME280;4663;49.120;9.730;2022-09-16T08:34:15;97518.09;;;10.15;97.87
19751;BME280;4663;49.120;9.730;2022-09-16T08:36:41;97520.22;;;10.48;97.73
19751;BME280;4663;49.120;9.730;2022-09-16T08:39:08;97517.72;;;10.47;94.66
19751;BME280;4663;49.120;9.730;2022-09-16T08:47:20;97529.94;;;10.78;95.05
19751;BME280;4663;49.120;9.730;2022-09-16T08:49:47;97520.25;;;10.55;90.86
19751;BME280;4663;49.120;9.730;2022-09-16T08:52:30;97524.88;;;10.61;93.23
19751;BME280;4663;49.120;9.730;2022-09-16T08:55:20;97515.81;;;10.12;89.67
19751;BME280;4663;49.120;9.730;2022-09-16T09:00:27;97532.47;;;10.86;93.55
19751;BME280;4663;49.120;9.730;2022-09-16T09:02:56;97518.69;;;10.74;89.38
19751;BME280;4663;49.120;9.730;2022-09-16T09:05:35;97513.25;;;10.68;91.17
19751;BME280;4663;49.120;9.730;2022-09-16T09:11:45;97518.81;;;10.95;92.65
19751;BME280;4663;49.120;9.730;2022-09-16T09:14:21;97517.19;;;11.07;91.12
19751;BME280;4663;49.120;9.730;2022-09-16T09:17:26;97509.53;;;10.69;88.39
19751;BME280;4663;49.120;9.730;2022-09-16T09:30:32;97522.53;;;11.42;92.25
19751;BME280;4663;49.120;9.730;2022-09-16T09:33:22;97514.41;;;11.29;89.75
19751;BME280;4663;49.120;9.730;2022-09-16T09:38:52;97521.91;;;10.91;88.81
19751;BME280;4663;49.120;9.730;2022-09-16T09:41:36;97517.03;;;11.15;88.97
19751;BME280;4663;49.120;9.730;2022-09-16T09:46:45;97522.06;;;11.19;90.52
19751;BME280;4663;49.120;9.730;2022-09-16T09:49:15;97521.59;;;10.73;88.95
19751;BME280;4663;49.120;9.730;2022-09-16T09:54:32;97521.63;;;11.15;90.75
19751;BME280;4663;49.120;9.730;2022-09-16T09:59:31;97523.00;;;11.04;90.41
19751;BME280;4663;49.120;9.730;2022-09-16T10:01:58;97518.16;;;10.50;91.06
19751;BME280;4663;49.120;9.730;2022-09-16T10:04:25;97523.16;;;10.96;93.56
19751;BME280;4663;49.120;9.730;2022-09-16T10:06:53;97515.88;;;10.89;91.75
19751;BME280;4663;49.120;9.730;2022-09-16T10:09:20;97510.50;;;10.96;90.72
19751;BME280;4663;49.120;9.730;2022-09-16T10:11:51;97518.69;;;11.10;93.13
19751;BME280;4663;49.120;9.730;2022-09-16T10:14:31;97519.31;;;11.12;95.11
19751;BME280;4663;49.120;9.730;2022-09-16T10:17:00;97509.22;;;10.85;90.04
19751;BME280;4663;49.120;9.730;2022-09-16T10:19:28;97507.13;;;10.87;91.80
19751;BME280;4663;49.120;9.730;2022-09-16T10:22:06;97517.94;;;10.87;92.80
19751;BME280;4663;49.120;9.730;2022-09-16T10:27:01;97512.63;;;11.01;91.06
19751;BME280;4663;49.120;9.730;2022-09-16T10:29:27;97512.38;;;10.96;89.81
19751;BME280;4663;49.120;9.730;2022-09-16T10:31:53;97520.38;;;11.18;92.67
19751;BME280;4663;49.120;9.730;2022-09-16T10:34:25;97517.44;;;11.12;92.52
19751;BME280;4663;49.120;9.730;2022-09-16T10:39:38;97511.06;;;10.85;91.60
19751;BME280;4663;49.120;9.730;2022-09-16T10:42:18;97505.88;;;10.83;90.29
19751;BME280;4663;49.120;9.730;2022-09-16T10:44:45;97505.75;;;10.63;87.83
19751;BME280;4663;49.120;9.730;2022-09-16T10:47:21;97510.81;;;10.37;92.16
19751;BME280;4663;49.120;9.730;2022-09-16T10:49:50;97506.88;;;10.40;93.32
19751;BME280;4663;49.120;9.730;2022-09-16T10:52:21;97506.25;;;10.38;94.29
19751;BME280;4663;49.120;9.730;2022-09-16T10:54:47;97507.69;;;10.41;95.66
19751;BME280;4663;49.120;9.730;2022-09-16T11:00:13;97504.69;;;10.22;94.37
19751;BME280;4663;49.120;9.730;2022-09-16T11:02:55;97505.66;;;10.14;95.65
19751;BME280;4663;49.120;9.730;2022-09-16T11:05:35;97505.97;;;10.04;95.54
19751;BME280;4663;49.120;9.730;2022-09-16T11:08:12;97509.03;;;10.23;95.43
19751;BME280;4663;49.120;9.730;2022-09-16T11:21:19;97499.63;;;10.12;94.24
19751;BME280;4663;49.120;9.730;2022-09-16T11:29:23;97516.78;;;9.82;96.53
19751;BME280;4663;49.120;9.730;2022-09-16T11:38:29;97518.63;;;9.82;95.76
19751;BME280;4663;49.120;9.730;2022-09-16T11:46:11;97513.44;;;9.80;100.00
19751;BME280;4663;49.120;9.730;2022-09-16T11:49:00;97520.19;;;9.69;99.91
19751;BME280;4663;49.120;9.730;2022-09-16T11:54:29;97513.03;;;9.61;99.31
19751;BME280;4663;49.120;9.730;2022-09-16T11:57:06;97508.69;;;9.60;99.27
19751;BME280;4663;49.120;9.730;2022-09-16T11:59:46;97508.31;;;9.64;100.00
19751;BME280;4663;49.120;9.730;2022-09-16T12:10:26;97499.97;;;9.80;100.00
19751;BME280;4663;49.120;9.730;2022-09-16T12:13:15;97499.84;;;10.10;99.27
19751;BME280;4663;49.120;9.730;2022-09-16T12:15:58;97499.63;;;10.12;98.96
19751;BME280;4663;49.120;9.730;2022-09-16T12:23:33;97492.56;;;10.82;96.37
19751;BME280;4663;49.120;9.730;2022-09-16T12:26:06;97497.91;;;10.68;97.83
19751;BME280;4663;49.120;9.730;2022-09-16T12:28:43;97492.16;;;10.78;97.02
19751;BME280;4663;49.120;9.730;2022-09-16T12:31:42;97487.84;;;10.90;94.75
19751;BME280;4663;49.120;9.730;2022-09-16T12:34:12;97485.00;;;10.63;96.99
19751;BME280;4663;49.120;9.730;2022-09-16T12:36:42;97489.66;;;10.83;99.42
19751;BME280;4663;49.120;9.730;2022-09-16T12:39:10;97491.63;;;11.03;98.35
19751;BME280;4663;49.120;9.730;2022-09-16T12:52:26;97481.53;;;11.19;94.62
19751;BME280;4663;49.120;9.730;2022-09-16T13:00:22;97465.84;;;11.97;90.23
19751;BME280;4663;49.120;9.730;2022-09-16T13:05:20;97463.72;;;11.72;89.82
19751;BME280;4663;49.120;9.730;2022-09-16T13:07:50;97467.09;;;12.14;90.59
19751;BME280;4663;49.120;9.730;2022-09-16T13:10:20;97466.25;;;12.21;86.89
19751;BME280;4663;49.120;9.730;2022-09-16T13:12:53;97465.44;;;12.13;93.20
19751;BME280;4663;49.120;9.730;2022-09-16T13:17:48;97453.97;;;12.04;89.83
19751;BME280;4663;49.120;9.730;2022-09-16T13:20:29;97453.13;;;12.31;88.63
19751;BME280;4663;49.120;9.730;2022-09-16T13:23:16;97454.56;;;12.40;92.52
19751;BME280;4663;49.120;9.730;2022-09-16T13:26:01;97442.13;;;12.12;86.64
19751;BME280;4663;49.120;9.730;2022-09-16T13:33:36;97436.28;;;12.02;88.03
19751;BME280;4663;49.120;9.730;2022-09-16T13:38:56;97441.50;;;11.83;88.55
19751;BME280;4663;49.120;9.730;2022-09-16T13:41:42;97440.44;;;11.77;90.36
19751;BME280;4663;49.120;9.730;2022-09-16T13:46:52;97441.28;;;11.51;91.51
19751;BME280;4663;49.120;9.730;2022-09-16T13:51:46;97435.56;;;11.05;86.83
19751;BME280;4663;49.120;9.730;2022-09-16T13:54:28;97435.00;;;11.23;87.86
19751;BME280;4663;49.120;9.730;2022-09-16T13:59:44;97424.75;;;11.05;89.92
19751;BME280;4663;49.120;9.730;2022-09-16T14:10:40;97422.78;;;10.78;83.94
19751;BME280;4663;49.120;9.730;2022-09-16T14:13:13;97424.22;;;10.74;82.23
19751;BME280;4663;49.120;9.730;2022-09-16T14:15:42;97428.47;;;11.04;86.77
19751;BME280;4663;49.120;9.730;2022-09-16T14:18:12;97429.03;;;10.86;90.14
19751;BME280;4663;49.120;9.730;2022-09-16T14:21:00;97435.50;;;10.91;90.25
19751;BME280;4663;49.120;9.730;2022-09-16T14:23:26;97433.19;;;10.82;90.90
19751;BME280;4663;49.120;9.730;2022-09-16T14:25:52;97413.22;;;10.76;81.88
19751;BME280;4663;49.120;9.730;2022-09-16T14:28:22;97422.75;;;11.21;84.04
19751;BME280;4663;49.120;9.730;2022-09-16T14:33:21;97424.41;;;11.22;85.12
19751;BME280;4663;49.120;9.730;2022-09-16T14:35:48;97438.31;;;11.32;91.79
19751;BME280;4663;49.120;9.730;2022-09-16T14:38:16;97423.81;;;11.40;90.11
19751;BME280;4663;49.120;9.730;2022-09-16T14:40:43;97420.91;;;11.41;89.58
19751;BME280;4663;49.120;9.730;2022-09-16T14:43:14;97424.19;;;11.23;92.00
19751;BME280;4663;49.120;9.730;2022-09-16T14:45:45;97416.31;;;11.35;90.11
19751;BME280;4663;49.120;9.730;2022-09-16T14:48:13;97421.50;;;11.44;91.49
19751;BME280;4663;49.120;9.730;2022-09-16T14:50:43;97420.06;;;11.41;92.13
19751;BME280;4663;49.120;9.730;2022-09-16T14:53:32;97427.13;;;11.42;91.37
19751;BME280;4663;49.120;9.730;2022-09-16T14:55:58;97415.50;;;11.35;87.83
19751;BME280;4663;49.120;9.730;2022-09-16T14:58:28;97420.06;;;11.41;86.19
19751;BME280;4663;49.120;9.730;2022-09-16T15:01:13;97411.75;;;11.29;87.82
19751;BME280;4663;49.120;9.730;2022-09-16T15:03:55;97414.25;;;11.51;88.37
19751;BME280;4663;49.120;9.730;2022-09-16T15:06:27;97419.84;;;11.29;87.59
19751;BME280;4663;49.120;9.730;2022-09-16T15:11:54;97398.88;;;11.45;82.78
19751;BME280;4663;49.120;9.730;2022-09-16T15:14:21;97412.56;;;11.36;88.09
19751;BME280;4663;49.120;9.730;2022-09-16T15:16:50;97413.00;;;11.47;88.88
19751;BME280;4663;49.120;9.730;2022-09-16T15:19:38;97406.34;;;11.42;80.79
19751;BME280;4663;49.120;9.730;2022-09-16T15:22:09;97418.19;;;11.48;86.75
19751;BME280;4663;49.120;9.730;2022-09-16T15:24:39;97431.31;;;11.45;89.96
19751;BME280;4663;49.120;9.730;2022-09-16T15:27:05;97418.72;;;11.03;89.32
19751;BME280;4663;49.120;9.730;2022-09-16T15:29:34;97412.53;;;11.23;88.29
19751;BME280;4663;49.120;9.730;2022-09-16T15:32:19;97420.78;;;11.01;90.05
19751;BME280;4663;49.120;9.730;2022-09-16T15:35:02;97422.88;;;11.06;91.62
19751;BME280;4663;49.120;9.730;2022-09-16T15:37:31;97414.84;;;11.19;89.39
19751;BME280;4663;49.120;9.730;2022-09-16T15:40:08;97418.91;;;11.08;89.60
19751;BME280;4663;49.120;9.730;2022-09-16T15:42:33;97407.50;;;11.06;88.22
19751;BME280;4663;49.120;9.730;2022-09-16T15:45:01;97414.66;;;11.27;89.74
19751;BME280;4663;49.120;9.730;2022-09-16T15:47:29;97417.09;;;11.22;88.61
19751;BME280;4663;49.120;9.730;2022-09-16T15:50:02;97416.28;;;11.22;89.02
19751;BME280;4663;49.120;9.730;2022-09-16T15:52:31;97421.63;;;11.08;88.91
19751;BME280;4663;49.120;9.730;2022-09-16T15:55:03;97415.47;;;11.28;88.51
19751;BME280;4663;49.120;9.730;2022-09-16T15:57:33;97412.78;;;11.41;90.63
19751;BME280;4663;49.120;9.730;2022-09-16T16:00:11;97417.53;;;11.26;88.46
19751;BME280;4663;49.120;9.730;2022-09-16T16:02:48;97421.72;;;11.35;89.18
19751;BME280;4663;49.120;9.730;2022-09-16T16:05:21;97433.94;;;11.18;90.88
19751;BME280;4663;49.120;9.730;2022-09-16T16:07:52;97458.28;;;11.31;90.88
19751;BME280;4663;49.120;9.730;2022-09-16T16:10:19;97461.97;;;11.10;89.12
19751;BME280;4663;49.120;9.730;2022-09-16T16:12:46;97462.34;;;11.07;88.65
19751;BME280;4663;49.120;9.730;2022-09-16T16:15:19;97452.84;;;11.18;84.52
19751;BME280;4663;49.120;9.730;2022-09-16T16:17:46;97462.22;;;11.22;85.21
19751;BME280;4663;49.120;9.730;2022-09-16T16:20:13;97458.88;;;11.20;87.96
19751;BME280;4663;49.120;9.730;2022-09-16T16:22:39;97454.41;;;10.98;84.31
19751;BME280;4663;49.120;9.730;2022-09-16T16:25:05;97457.91;;;10.85;82.85
19751;BME280;4663;49.120;9.730;2022-09-16T16:27:32;97456.41;;;10.76;85.20
19751;BME280;4663;49.120;9.730;2022-09-16T16:29:58;97454.38;;;10.85;87.06
19751;BME280;4663;49.120;9.730;2022-09-16T16:32:23;97448.94;;;10.71;86.86
19751;BME280;4663;49.120;9.730;2022-09-16T16:34:49;97442.91;;;10.34;82.47
19751;BME280;4663;49.120;9.730;2022-09-16T16:37:17;97454.00;;;10.46;86.16